KMYR

Myrtle Beach International Airport

Myrtle Beach, South Carolina, USA
METAR KMYR 160556Z AUTO 23004KT 10SM CLR 26/24 A3012 RMK AO2 SLP198 60002 T02560239 10272 20250 50003
Observed Flight Rules
Aug-16 @ 05:56 UTC (19 minutes ago) Visual Flight Rules
Wind Visibility Clouds
230° at 4 knots 10 miles
  • Clear skies
Temperatures Readings
Current 26°C / 79°F
Dewpoint 24°C / 75°F
Humidity 89%
Altimeter 30.12" Hg
Pressure 1019.8 hPa
Elevation 8
METAR KMYR 160556Z AUTO 23004KT 10SM CLR 26/24 A3012 RMK AO2 SLP198 60002 T02560239 10272 20250 50003
Observed Flight Rules
Aug-16 @ 05:56 UTC
(19 minutes ago)
VFR
Wind Visibility
230° at 4 knots 10 miles
Clouds
  • Clear skies
Temperature Dewpoint
26°C / 79°F 24°C / 75°F
Humidity Altimeter Pressure
89% 30.12" Hg 1019.8 hPa